createdAt,value
2018-06-16T00:00:38.794Z,99.99
2018-06-16T00:01:38.815Z,99.99
2018-06-16T00:02:38.843Z,99.99
2018-06-16T00:03:38.858Z,99.99
2018-06-16T00:04:38.876Z,99.99
2018-06-16T00:05:38.897Z,99.99
2018-06-16T00:06:38.918Z,99.99
2018-06-16T00:07:38.939Z,99.99
2018-06-16T00:08:38.957Z,99.99
2018-06-16T00:09:38.979Z,99.99
2018-06-16T00:10:38.997Z,99.99
2018-06-16T00:11:39.025Z,99.99
2018-06-16T00:12:39.040Z,99.99
2018-06-16T00:13:39.067Z,99.99
2018-06-16T00:14:39.080Z,99.99
2018-06-16T00:15:39.103Z,99.99
2018-06-16T00:16:39.124Z,99.99
2018-06-16T00:17:39.144Z,99.99
2018-06-16T00:18:39.165Z,99.99
2018-06-16T00:19:39.191Z,99.99
2018-06-16T00:20:39.207Z,99.99
2018-06-16T00:21:39.229Z,99.99
2018-06-16T00:22:39.245Z,99.99
2018-06-16T00:23:39.268Z,99.99
2018-06-16T00:24:39.288Z,99.99
2018-06-16T00:25:39.308Z,99.99
2018-06-16T00:26:39.328Z,99.99
2018-06-16T00:27:39.356Z,99.99
2018-06-16T00:28:39.369Z,99.99
2018-06-16T00:29:39.389Z,99.99
2018-06-16T00:30:39.412Z,99.99
2018-06-16T00:31:39.432Z,99.99
2018-06-16T00:32:39.451Z,99.99
2018-06-16T00:33:39.469Z,99.99
2018-06-16T00:34:39.493Z,99.99
2018-06-16T00:35:39.511Z,99.99
2018-06-16T00:36:39.535Z,99.99
2018-06-16T00:37:39.553Z,99.99
2018-06-16T00:38:39.585Z,99.99
2018-06-16T00:39:39.596Z,99.99
2018-06-16T00:40:39.615Z,99.99
2018-06-16T00:41:39.636Z,99.99
2018-06-16T00:42:39.657Z,99.99
2018-06-16T00:43:39.675Z,99.99
2018-06-16T00:44:39.697Z,99.99
2018-06-16T00:45:39.716Z,99.99
2018-06-16T00:46:39.740Z,99.99
2018-06-16T00:47:39.764Z,99.99
2018-06-16T00:48:39.784Z,99.99
2018-06-16T00:49:39.800Z,99.99
2018-06-16T00:50:39.822Z,99.99
2018-06-16T00:51:39.846Z,99.99
2018-06-16T00:52:39.862Z,99.99
2018-06-16T00:53:39.890Z,99.99
2018-06-16T00:54:39.905Z,99.99
2018-06-16T00:55:39.923Z,99.99
2018-06-16T00:56:39.945Z,99.99
2018-06-16T00:57:39.966Z,99.99
2018-06-16T00:58:39.987Z,99.99
2018-06-16T00:59:40.013Z,99.99
2018-06-16T01:00:40.031Z,99.99
2018-06-16T01:01:40.050Z,99.99
2018-06-16T01:02:40.070Z,99.99
2018-06-16T01:03:40.092Z,99.99
2018-06-16T01:04:40.110Z,99.99
2018-06-16T01:05:40.133Z,99.99
2018-06-16T01:06:40.153Z,99.99
2018-06-16T01:07:40.171Z,99.99
2018-06-16T01:08:40.195Z,99.99
2018-06-16T01:09:40.213Z,99.99
2018-06-16T01:10:40.239Z,99.99
2018-06-16T01:11:40.256Z,99.99
2018-06-16T01:12:40.307Z,99.99
2018-06-16T01:13:40.297Z,99.99
2018-06-16T01:14:40.318Z,99.99
2018-06-16T01:15:40.338Z,99.99
2018-06-16T01:16:40.357Z,99.99
2018-06-16T01:17:40.381Z,99.99
2018-06-16T01:18:40.398Z,99.99
2018-06-16T01:19:40.419Z,99.99
2018-06-16T01:20:40.442Z,99.99
2018-06-16T01:21:40.460Z,99.99
2018-06-16T01:22:40.487Z,99.99
2018-06-16T01:23:40.503Z,99.99
2018-06-16T01:24:40.527Z,99.99
2018-06-16T01:25:40.543Z,99.99
2018-06-16T01:26:40.563Z,99.99
2018-06-16T01:27:40.586Z,99.99
2018-06-16T01:28:40.604Z,99.99
2018-06-16T01:29:40.623Z,99.99
2018-06-16T01:30:40.648Z,99.99
2018-06-16T01:31:40.665Z,99.99
2018-06-16T01:32:40.687Z,99.99
2018-06-16T01:33:40.712Z,99.99
2018-06-16T01:34:40.726Z,99.99
2018-06-16T01:35:40.749Z,99.99
2018-06-16T01:36:40.765Z,99.99
2018-06-16T01:37:40.791Z,99.99
2018-06-16T01:38:40.808Z,99.99
2018-06-16T01:39:40.833Z,99.99
2018-06-16T01:40:40.852Z,99.99
2018-06-16T01:41:40.874Z,99.99
2018-06-16T01:42:40.893Z,99.99
2018-06-16T01:43:40.921Z,99.99
2018-06-16T01:44:40.931Z,99.99
2018-06-16T01:45:40.959Z,99.99
2018-06-16T01:46:40.971Z,99.99
2018-06-16T01:47:40.995Z,99.99
2018-06-16T01:48:41.014Z,99.99
2018-06-16T01:49:41.040Z,99.99
2018-06-16T01:50:41.061Z,99.99
2018-06-16T01:51:41.078Z,99.99
2018-06-16T01:52:41.098Z,99.99
2018-06-16T01:53:41.117Z,99.99
2018-06-16T01:54:41.137Z,99.99
2018-06-16T02:23:48.022Z,99.99
2018-06-16T02:24:48.012Z,99.99
2018-06-16T02:26:40.930Z,99.99
2018-06-16T02:27:40.937Z,99.99
2018-06-16T02:29:33.876Z,99.99
2018-06-16T02:30:33.869Z,99.99
2018-06-16T02:32:26.788Z,99.99
2018-06-16T02:33:26.803Z,99.99
2018-06-16T02:35:19.745Z,99.99
2018-06-16T02:36:19.737Z,99.99
2018-06-16T02:38:12.660Z,99.99
2018-06-16T02:39:12.677Z,99.99
2018-06-16T02:41:05.622Z,99.99
2018-06-16T02:42:05.613Z,99.99
2018-06-16T02:43:58.559Z,99.99
2018-06-16T02:44:58.557Z,99.99
2018-06-16T02:46:51.509Z,99.99
2018-06-16T02:47:51.496Z,99.99
2018-06-16T02:49:44.444Z,99.99
2018-06-16T02:50:44.438Z,99.99
2018-06-16T02:52:37.360Z,99.99
2018-06-16T02:53:37.377Z,99.99
2018-06-16T02:55:30.319Z,99.99
2018-06-16T02:56:30.313Z,99.99
2018-06-16T02:58:23.240Z,99.99
2018-06-16T02:59:23.258Z,99.99
2018-06-16T03:01:16.200Z,99.99
2018-06-16T03:02:16.197Z,99.99
2018-06-16T03:04:09.146Z,99.99
2018-06-16T03:05:09.136Z,99.99
2018-06-16T03:07:02.065Z,99.99
2018-06-16T03:08:02.083Z,99.99
2018-06-16T03:09:55.033Z,99.99
2018-06-16T03:10:55.029Z,99.99
2018-06-16T03:12:47.953Z,99.99
2018-06-16T03:13:47.968Z,99.99
2018-06-16T03:15:40.923Z,99.99
2018-06-16T03:16:40.913Z,99.99
2018-06-16T03:18:33.834Z,99.99
2018-06-16T03:19:33.854Z,99.99
2018-06-16T03:21:26.799Z,99.99
2018-06-16T03:22:26.795Z,99.99
2018-06-16T03:24:19.741Z,99.99
2018-06-16T03:25:19.734Z,99.99
2018-06-16T03:27:12.660Z,99.99
2018-06-16T03:28:12.676Z,99.99
2018-06-16T03:30:05.623Z,99.99
2018-06-16T03:31:05.614Z,99.99
2018-06-16T03:32:58.543Z,99.99
2018-06-16T03:33:58.557Z,99.99
2018-06-16T03:35:51.506Z,99.99
2018-06-16T03:36:51.501Z,99.99
2018-06-16T03:38:44.428Z,99.99
2018-06-16T03:39:44.442Z,99.99
2018-06-16T03:41:37.389Z,99.99
2018-06-16T03:42:37.383Z,99.99
2018-06-16T03:44:30.330Z,99.99
2018-06-16T03:45:30.327Z,99.99
2018-06-16T03:47:23.253Z,99.99
2018-06-16T03:48:23.268Z,99.99
2018-06-16T03:50:16.213Z,99.99
2018-06-16T03:51:16.210Z,99.99
2018-06-16T03:53:09.139Z,99.99
2018-06-16T03:54:09.152Z,99.99
2018-06-16T03:56:02.104Z,99.99
2018-06-16T03:57:02.100Z,99.99
2018-06-16T03:58:55.036Z,99.99
2018-06-16T03:59:55.050Z,99.99
2018-06-16T04:01:48.029Z,99.99
2018-06-16T04:02:47.987Z,99.99
2018-06-16T04:04:40.978Z,99.99
2018-06-16T04:05:40.928Z,99.99
2018-06-16T04:07:33.860Z,99.99
2018-06-16T04:08:33.879Z,99.99
2018-06-16T04:10:26.827Z,99.99
2018-06-16T04:11:26.812Z,99.99
2018-06-16T04:13:19.744Z,99.99
2018-06-16T04:14:19.762Z,99.99
2018-06-16T04:16:12.706Z,99.99
2018-06-16T04:17:12.703Z,99.99
2018-06-16T04:19:06.129Z,99.99
2018-06-16T04:20:06.150Z,99.99
2018-06-16T04:21:59.591Z,99.99
2018-06-16T04:22:59.586Z,99.99
2018-06-16T04:24:52.534Z,99.99
2018-06-16T04:25:52.529Z,99.99
2018-06-16T04:27:45.456Z,99.99
2018-06-16T04:28:45.468Z,99.99
2018-06-16T04:30:38.421Z,99.99
2018-06-16T04:31:38.413Z,99.99
2018-06-16T04:33:31.341Z,99.99
2018-06-16T04:34:31.397Z,99.99
2018-06-16T04:36:24.305Z,99.99
2018-06-16T04:37:24.297Z,99.99
2018-06-16T04:39:17.229Z,99.99
2018-06-16T04:40:17.246Z,99.99
2018-06-16T04:42:10.191Z,99.99
2018-06-16T04:43:10.184Z,99.99
2018-06-16T04:45:03.139Z,99.99
2018-06-16T04:46:03.135Z,99.99
2018-06-16T04:47:56.060Z,99.99
2018-06-16T04:48:56.076Z,99.99
2018-06-16T04:50:49.039Z,99.99
2018-06-16T04:51:49.021Z,99.99
2018-06-16T04:53:41.962Z,99.99
2018-06-16T04:54:41.967Z,99.99
2018-06-16T04:56:34.928Z,99.99
2018-06-16T04:57:34.920Z,99.99
2018-06-16T04:59:27.850Z,99.99
2018-06-16T05:00:27.860Z,99.99
2018-06-16T05:02:20.817Z,99.99
2018-06-16T05:03:20.809Z,99.99
2018-06-16T05:05:13.824Z,99.99
2018-06-16T05:06:13.806Z,99.99
2018-06-16T05:08:06.736Z,99.99
2018-06-16T05:09:06.745Z,99.99
2018-06-16T05:10:59.728Z,99.99
2018-06-16T05:11:59.704Z,99.99
2018-06-16T05:12:59.733Z,99.99
2018-06-16T05:13:59.746Z,99.99
2018-06-16T05:14:59.766Z,99.99
2018-06-16T05:15:59.789Z,99.99
2018-06-16T05:16:59.836Z,99.99
2018-06-16T05:17:59.835Z,99.99
2018-06-16T05:18:59.852Z,99.99
2018-06-16T05:19:59.876Z,99.99
2018-06-16T05:20:59.931Z,99.99
2018-06-16T05:21:59.973Z,99.99
2018-06-16T05:22:59.936Z,99.99
2018-06-16T05:23:59.978Z,99.99
2018-06-16T05:24:59.979Z,99.99
2018-06-16T05:26:00.001Z,99.99
2018-06-16T05:27:00.062Z,99.99
2018-06-16T05:28:00.043Z,99.99
2018-06-16T05:29:00.068Z,99.99
2018-06-16T05:30:00.106Z,99.99
2018-06-16T05:31:00.109Z,99.99
2018-06-16T05:32:00.143Z,99.99
2018-06-16T05:33:00.149Z,99.99
2018-06-16T05:34:00.179Z,99.99
2018-06-16T05:35:00.219Z,99.99
2018-06-16T05:36:00.223Z,99.99
2018-06-16T05:37:00.240Z,99.99
2018-06-16T05:38:00.263Z,99.99
2018-06-16T05:39:00.288Z,99.99
2018-06-16T05:40:00.305Z,99.99
2018-06-16T05:41:00.330Z,99.99
2018-06-16T05:42:00.352Z,99.99
2018-06-16T05:43:00.389Z,99.99
2018-06-16T05:44:00.406Z,99.99
2018-06-16T05:45:00.425Z,99.99
2018-06-16T05:46:00.448Z,99.99
2018-06-16T05:47:00.470Z,99.99
2018-06-16T05:48:00.490Z,99.99
2018-06-16T05:49:00.514Z,99.99
2018-06-16T05:50:00.540Z,99.99
2018-06-16T05:51:00.570Z,99.99
2018-06-16T05:52:00.588Z,99.99
2018-06-16T05:53:00.612Z,99.99
2018-06-16T05:54:00.670Z,99.99
2018-06-16T05:55:00.660Z,99.99
2018-06-16T05:56:00.692Z,99.99
2018-06-16T05:57:00.705Z,99.99
2018-06-16T05:58:00.733Z,99.99
2018-06-16T05:59:00.756Z,99.99
2018-06-16T06:00:00.782Z,99.99
2018-06-16T06:01:00.806Z,99.99
2018-06-16T06:02:00.834Z,99.99
2018-06-16T06:03:00.855Z,99.99
2018-06-16T06:04:00.880Z,99.99
2018-06-16T06:05:00.905Z,99.99
2018-06-16T06:06:00.929Z,99.99
2018-06-16T06:07:00.957Z,99.99
2018-06-16T06:08:00.978Z,99.99
2018-06-16T06:09:01.004Z,99.99
2018-06-16T06:10:01.030Z,99.99
2018-06-16T06:11:01.055Z,99.99
2018-06-16T06:12:01.080Z,99.99
2018-06-16T06:13:01.117Z,99.99
2018-06-16T06:14:01.131Z,99.99
2018-06-16T06:15:01.157Z,99.99
2018-06-16T06:16:01.179Z,99.99
2018-06-16T06:17:01.219Z,99.99
2018-06-16T06:18:01.228Z,99.99
2018-06-16T06:19:01.251Z,99.99
2018-06-16T06:20:01.277Z,99.99
2018-06-16T06:21:01.307Z,99.99
2018-06-16T06:22:01.331Z,99.99
2018-06-16T06:23:01.356Z,99.99
2018-06-16T06:24:01.376Z,99.99
2018-06-16T06:25:01.402Z,99.99
2018-06-16T06:26:01.428Z,99.99
2018-06-16T06:27:01.453Z,99.99
2018-06-16T06:28:01.485Z,99.99
2018-06-16T06:29:01.503Z,99.99
2018-06-16T06:30:01.526Z,99.99
2018-06-16T06:31:01.553Z,99.99
2018-06-16T06:32:01.584Z,99.99
2018-06-16T06:33:01.604Z,99.99
2018-06-16T06:34:01.626Z,99.99
2018-06-16T06:35:01.653Z,99.99
2018-06-16T06:36:01.671Z,99.99
2018-06-16T06:37:01.696Z,99.99
2018-06-16T06:38:01.727Z,99.99
2018-06-16T06:39:01.751Z,99.99
2018-06-16T06:40:01.769Z,99.99
2018-06-16T06:41:01.801Z,99.99
2018-06-16T06:42:01.821Z,99.99
2018-06-16T06:43:01.845Z,99.99
2018-06-16T06:44:01.876Z,99.99
2018-06-16T06:45:01.895Z,99.99
2018-06-16T06:46:01.921Z,99.99
2018-06-16T06:47:01.941Z,99.99
2018-06-16T06:48:01.969Z,99.99
2018-06-16T06:49:01.995Z,99.99
2018-06-16T06:50:02.015Z,98.30
2018-06-16T06:51:02.047Z,97.86
2018-06-16T06:52:02.064Z,96.51
2018-06-16T06:53:02.092Z,93.22
2018-06-16T06:54:02.118Z,90.84
2018-06-16T06:55:02.139Z,87.50
2018-06-16T06:56:02.164Z,86.44
2018-06-16T06:57:02.189Z,85.80
2018-06-16T06:58:02.252Z,84.16
2018-06-16T06:59:02.238Z,84.35
2018-06-16T07:00:02.264Z,85.28
2018-06-16T07:01:02.483Z,82.80
2018-06-16T07:02:02.315Z,83.11
2018-06-16T07:03:02.344Z,85.82
2018-06-16T07:04:02.418Z,86.88
2018-06-16T07:05:02.387Z,87.75
2018-06-16T07:06:02.416Z,88.81
2018-06-16T07:07:02.488Z,87.85
2018-06-16T07:08:02.465Z,87.17
2018-06-16T07:09:02.495Z,85.91
2018-06-16T07:10:02.522Z,86.88
2018-06-16T07:11:02.547Z,89.93
2018-06-16T07:12:02.572Z,89.25
2018-06-16T07:13:02.603Z,89.50
2018-06-16T07:14:02.621Z,89.54
2018-06-16T07:15:02.677Z,89.64
2018-06-16T07:16:02.670Z,89.40
2018-06-16T07:17:02.698Z,89.40
2018-06-16T07:18:02.722Z,91.43
2018-06-16T07:19:02.747Z,90.66
2018-06-16T07:20:02.775Z,91.24
2018-06-16T07:21:02.803Z,90.17
2018-06-16T07:22:02.828Z,88.49
2018-06-16T07:23:02.851Z,89.94
2018-06-16T07:24:02.877Z,91.19
2018-06-16T07:25:02.907Z,92.35
2018-06-16T07:26:02.925Z,94.67
2018-06-16T07:27:02.963Z,93.08
2018-06-16T07:28:02.977Z,89.59
2018-06-16T07:29:03.002Z,86.60
2018-06-16T07:30:03.029Z,86.21
2018-06-16T07:31:03.056Z,87.85
2018-06-16T07:32:03.082Z,85.29
2018-06-16T07:33:03.104Z,84.32
2018-06-16T07:34:03.132Z,82.00
2018-06-16T07:35:03.160Z,81.23
2018-06-16T07:36:03.186Z,82.39
2018-06-16T07:37:03.205Z,82.23
2018-06-16T07:38:03.232Z,80.49
2018-06-16T07:39:03.263Z,81.27
2018-06-16T07:40:03.283Z,78.56
2018-06-16T07:41:03.308Z,80.24
2018-06-16T07:42:03.339Z,77.82
2018-06-16T07:43:03.357Z,76.66
2018-06-16T07:44:03.386Z,79.47
2018-06-16T07:45:03.411Z,81.30
2018-06-16T07:46:03.437Z,81.07
2018-06-16T07:47:03.459Z,82.39
2018-06-16T07:48:03.487Z,82.83
2018-06-16T07:49:03.522Z,85.44
2018-06-16T07:50:03.538Z,84.47
2018-06-16T07:51:03.566Z,89.21
2018-06-16T07:52:03.590Z,86.21
2018-06-16T07:53:03.618Z,91.43
2018-06-16T07:54:03.642Z,85.35
2018-06-16T07:55:03.669Z,81.62
2018-06-16T07:56:03.694Z,82.62
2018-06-16T07:57:03.718Z,81.79
2018-06-16T07:58:03.744Z,77.53
2018-06-16T07:59:03.771Z,75.05
2018-06-16T08:00:03.795Z,75.77
2018-06-16T08:01:03.822Z,72.77
2018-06-16T08:02:03.847Z,71.44
2018-06-16T08:03:03.873Z,70.67
2018-06-16T08:04:03.898Z,69.60
2018-06-16T08:05:03.925Z,70.57
2018-06-16T08:06:03.950Z,69.79
2018-06-16T08:07:03.978Z,68.73
2018-06-16T08:08:04.003Z,68.96
2018-06-16T08:09:04.029Z,69.70
2018-06-16T08:10:04.059Z,72.06
2018-06-16T08:11:04.081Z,69.93
2018-06-16T08:12:04.107Z,68.08
2018-06-16T08:13:04.137Z,68.05
2018-06-16T08:14:04.162Z,67.21
2018-06-16T08:15:04.188Z,67.69
2018-06-16T08:16:04.214Z,68.44
2018-06-16T08:17:04.241Z,70.63
2018-06-16T08:18:04.269Z,71.41
2018-06-16T08:19:04.296Z,72.47
2018-06-16T08:20:04.320Z,73.15
2018-06-16T08:21:04.343Z,73.25
2018-06-16T08:22:04.376Z,71.50
2018-06-16T08:23:04.402Z,73.83
2018-06-16T08:24:04.428Z,72.22
2018-06-16T08:25:04.456Z,70.37
2018-06-16T08:26:04.482Z,70.12
2018-06-16T08:27:04.508Z,68.66
2018-06-16T08:28:04.535Z,69.64
2018-06-16T08:29:04.563Z,69.76
2018-06-16T08:30:04.587Z,68.76
2018-06-16T08:31:04.616Z,69.44
2018-06-16T08:32:04.644Z,68.05
2018-06-16T08:33:04.669Z,70.28
2018-06-16T08:34:04.697Z,70.34
2018-06-16T08:35:04.723Z,70.25
2018-06-16T08:36:04.754Z,71.60
2018-06-16T08:37:04.779Z,71.22
2018-06-16T08:38:04.807Z,72.09
2018-06-16T08:39:04.834Z,72.86
2018-06-16T08:40:04.858Z,72.09
2018-06-16T08:41:04.885Z,72.38
2018-06-16T08:42:04.912Z,74.70
2018-06-16T08:43:04.988Z,74.12
2018-06-16T08:44:04.967Z,74.96
2018-06-16T08:45:04.993Z,75.34
2018-06-16T08:46:05.020Z,73.02
2018-06-16T08:47:05.044Z,74.47
2018-06-16T08:48:05.072Z,74.02
2018-06-16T08:49:05.100Z,72.57
2018-06-16T08:50:05.124Z,73.44
2018-06-16T08:51:05.149Z,73.25
2018-06-16T08:52:05.177Z,72.18
2018-06-16T08:53:05.206Z,73.19
2018-06-16T08:54:05.231Z,71.77
2018-06-16T08:55:05.255Z,69.54
2018-06-16T08:56:05.283Z,69.67
2018-06-16T08:57:05.311Z,71.42
2018-06-16T08:58:05.339Z,68.51
2018-06-16T08:59:05.360Z,67.92
2018-06-16T09:00:05.388Z,67.76
2018-06-16T09:01:05.415Z,68.25
2018-06-16T09:02:05.444Z,68.83
2018-06-16T09:03:05.469Z,67.28
2018-06-16T09:04:05.496Z,67.76
2018-06-16T09:05:05.522Z,67.57
2018-06-16T09:06:05.548Z,69.51
2018-06-16T09:07:05.574Z,66.50
2018-06-16T09:08:05.600Z,68.08
2018-06-16T09:09:05.634Z,63.62
2018-06-16T09:10:05.656Z,64.49
2018-06-16T09:11:05.683Z,66.24
2018-06-16T09:12:05.712Z,66.53
2018-06-16T09:13:05.737Z,66.14
2018-06-16T09:14:05.765Z,65.95
2018-06-16T09:15:05.792Z,65.66
2018-06-16T09:16:05.818Z,64.30
2018-06-16T09:17:05.843Z,66.05
2018-06-16T09:18:05.874Z,64.59
2018-06-16T09:19:05.897Z,63.42
2018-06-16T09:20:05.925Z,63.65
2018-06-16T09:21:05.953Z,64.23
2018-06-16T09:22:05.981Z,64.23
2018-06-16T09:23:06.007Z,63.45
2018-06-16T09:24:06.032Z,61.02
2018-06-16T09:25:06.060Z,60.74
2018-06-16T09:26:06.088Z,61.61
2018-06-16T09:27:06.122Z,62.58
2018-06-16T09:28:06.252Z,62.19
2018-06-16T09:29:06.172Z,62.97
2018-06-16T09:30:06.195Z,64.36
2018-06-16T09:31:06.222Z,65.63
2018-06-16T09:32:06.248Z,64.85
2018-06-16T09:33:06.275Z,62.13
2018-06-16T09:34:06.303Z,59.83
2018-06-16T09:35:06.333Z,59.34
2018-06-16T09:36:06.361Z,58.57
2018-06-16T09:37:06.388Z,59.74
2018-06-16T09:38:06.409Z,61.55
2018-06-16T09:39:06.441Z,62.62
2018-06-16T09:40:06.464Z,61.74
2018-06-16T09:41:06.491Z,63.98
2018-06-16T09:42:06.535Z,62.39
2018-06-16T09:43:06.549Z,62.39
2018-06-16T09:44:06.576Z,62.39
2018-06-16T09:45:06.608Z,64.20
2018-06-16T09:46:06.625Z,62.16
2018-06-16T09:47:06.705Z,63.72
2018-06-16T09:48:06.700Z,62.39
2018-06-16T09:49:06.712Z,60.94
2018-06-16T09:50:06.733Z,60.81
2018-06-16T09:51:06.772Z,62.55
2018-06-16T09:52:06.788Z,61.88
2018-06-16T09:53:06.818Z,64.65
2018-06-16T09:54:06.837Z,63.59
2018-06-16T09:55:06.866Z,62.65
2018-06-16T09:56:06.892Z,61.19
2018-06-16T09:57:06.919Z,60.84
2018-06-16T09:58:06.946Z,59.31
2018-06-16T09:59:06.976Z,58.37
2018-06-16T10:00:07.001Z,59.18
2018-06-16T10:01:07.025Z,59.99
2018-06-16T10:02:07.051Z,56.77
2018-06-16T10:03:07.077Z,56.59
2018-06-16T10:04:07.106Z,56.90
2018-06-16T10:05:07.129Z,55.74
2018-06-16T10:06:07.158Z,54.47
2018-06-16T10:07:07.184Z,55.13
2018-06-16T10:08:07.209Z,53.69
2018-06-16T10:09:07.236Z,54.38
2018-06-16T10:10:07.262Z,55.76
2018-06-16T10:11:07.292Z,53.91
2018-06-16T10:12:07.321Z,54.23
2018-06-16T10:13:07.344Z,54.72
2018-06-16T10:14:07.372Z,55.57
2018-06-16T10:15:07.399Z,55.15
2018-06-16T10:16:07.437Z,55.25
2018-06-16T10:17:07.452Z,57.00
2018-06-16T10:18:07.478Z,56.03
2018-06-16T10:19:07.508Z,55.61
2018-06-16T10:20:07.534Z,55.51
2018-06-16T10:21:07.561Z,57.07
2018-06-16T10:22:07.586Z,57.85
2018-06-16T10:23:07.617Z,59.11
2018-06-16T10:24:07.644Z,57.49
2018-06-16T10:25:07.670Z,57.56
2018-06-16T10:26:07.696Z,55.03
2018-06-16T10:27:07.723Z,56.16
2018-06-16T10:28:07.752Z,54.80
2018-06-16T10:29:07.800Z,54.97
2018-06-16T10:30:07.813Z,56.75
2018-06-16T10:31:07.836Z,58.08
2018-06-16T10:32:07.860Z,57.50
2018-06-16T10:33:07.883Z,58.08
2018-06-16T10:34:07.919Z,59.61
2018-06-16T10:35:07.954Z,57.76
2018-06-16T10:36:07.968Z,57.57
2018-06-16T10:37:07.998Z,57.67
2018-06-16T10:38:08.020Z,58.54
2018-06-16T10:39:08.051Z,58.73
2018-06-16T10:40:08.073Z,57.76
2018-06-16T10:41:08.103Z,57.86
2018-06-16T10:42:08.133Z,60.38
2018-06-16T10:43:08.152Z,60.25
2018-06-16T10:44:08.179Z,59.09
2018-06-16T10:45:08.208Z,59.28
2018-06-16T10:46:08.236Z,60.64
2018-06-16T10:47:08.262Z,58.22
2018-06-16T10:48:08.289Z,58.34
2018-06-16T10:49:08.315Z,59.70
2018-06-16T10:50:08.342Z,59.51
2018-06-16T10:51:08.371Z,59.70
2018-06-16T10:52:08.399Z,58.05
2018-06-16T10:53:08.422Z,57.37
2018-06-16T10:54:08.452Z,57.98
2018-06-16T10:55:08.481Z,58.44
2018-06-16T10:56:08.503Z,60.80
2018-06-16T10:57:08.527Z,59.83
2018-06-16T10:58:08.552Z,58.15
2018-06-16T10:59:08.582Z,60.25
2018-06-16T11:00:08.605Z,60.45
2018-06-16T11:01:08.636Z,60.42
2018-06-16T11:02:08.662Z,61.98
2018-06-16T11:03:08.688Z,62.82
2018-06-16T11:04:08.713Z,63.75
2018-06-16T11:05:08.741Z,64.82
2018-06-16T11:06:08.769Z,65.11
2018-06-16T11:07:08.793Z,65.01
2018-06-16T11:08:08.818Z,65.50
2018-06-16T11:09:08.848Z,66.14
2018-06-16T11:10:08.873Z,65.59
2018-06-16T11:11:08.902Z,65.01
2018-06-16T11:12:08.925Z,66.17
2018-06-16T11:13:08.950Z,66.69
2018-06-16T11:14:08.974Z,67.47
2018-06-16T11:15:09.002Z,66.11
2018-06-16T11:16:09.028Z,64.85
2018-06-16T11:17:09.054Z,64.95
2018-06-16T11:18:09.080Z,64.07
2018-06-16T11:19:09.174Z,62.55
2018-06-16T11:20:09.139Z,64.23
2018-06-16T11:21:09.166Z,62.42
2018-06-16T11:22:09.184Z,60.97
2018-06-16T11:23:09.213Z,60.68
2018-06-16T11:24:09.237Z,60.31
2018-06-16T11:25:09.272Z,59.25
2018-06-16T11:26:09.305Z,58.98
2018-06-16T11:27:09.315Z,59.59
2018-06-16T11:28:09.343Z,59.18
2018-06-16T11:29:09.379Z,58.40
2018-06-16T11:30:09.412Z,58.18
2018-06-16T11:31:09.437Z,59.15
2018-06-16T11:32:09.446Z,60.22
2018-06-16T11:33:09.469Z,61.38
2018-06-16T11:34:09.499Z,60.80
2018-06-16T11:35:09.529Z,59.38
2018-06-16T11:36:09.556Z,59.18
2018-06-16T11:37:09.589Z,59.59
2018-06-16T11:38:09.620Z,58.43
2018-06-16T11:39:09.639Z,56.87
2018-06-16T11:40:09.684Z,57.85
2018-06-16T11:41:09.686Z,57.97
2018-06-16T11:42:09.713Z,57.75
2018-06-16T11:43:09.739Z,56.77
2018-06-16T11:44:09.761Z,57.97
2018-06-16T11:45:09.791Z,58.56
2018-06-16T11:46:09.819Z,58.07
2018-06-16T11:47:09.849Z,57.00
2018-06-16T11:48:10.383Z,56.22
2018-06-16T11:49:09.905Z,56.22
2018-06-16T11:50:09.925Z,56.29
2018-06-16T11:51:09.953Z,55.83
2018-06-16T11:52:10.020Z,56.49
2018-06-16T11:53:10.023Z,58.14
2018-06-16T11:54:10.034Z,57.46
2018-06-16T11:55:10.062Z,57.85
2018-06-16T11:56:10.115Z,58.72
2018-06-16T11:57:10.112Z,57.85
2018-06-16T11:58:10.153Z,57.75
2018-06-16T11:59:10.181Z,58.89
2018-06-16T12:00:10.204Z,58.28
2018-06-16T12:01:10.222Z,59.54
2018-06-16T12:02:10.252Z,61.55
2018-06-16T12:03:10.281Z,61.25
2018-06-16T12:04:10.299Z,59.87
2018-06-16T12:05:10.328Z,60.32
2018-06-16T12:06:10.354Z,61.00
2018-06-16T12:07:10.381Z,61.58
2018-06-16T12:08:10.406Z,61.07
2018-06-16T12:09:10.434Z,64.37
2018-06-16T12:10:10.483Z,62.43
2018-06-16T12:11:10.488Z,63.01
2018-06-16T12:12:10.513Z,64.17
2018-06-16T12:13:10.539Z,64.30
2018-06-16T12:14:10.564Z,61.32
2018-06-16T12:15:10.592Z,60.68
2018-06-16T12:16:10.628Z,58.21
2018-06-16T12:17:10.652Z,56.10
2018-06-16T12:18:10.681Z,57.65
2018-06-16T12:19:10.717Z,56.39
2018-06-16T12:20:10.722Z,55.03
2018-06-16T12:21:10.751Z,56.68
2018-06-16T12:22:10.775Z,57.26
2018-06-16T12:23:10.804Z,56.59
2018-06-16T12:24:10.825Z,57.46
2018-06-16T12:25:10.857Z,56.32
2018-06-16T12:26:10.886Z,54.15
2018-06-16T12:27:10.910Z,54.54
2018-06-16T12:28:10.940Z,54.13
2018-06-16T12:29:10.972Z,56.56
2018-06-16T12:30:11.000Z,55.29
2018-06-16T12:31:11.012Z,55.78
2018-06-16T12:32:11.047Z,55.49
2018-06-16T12:33:11.067Z,56.07
2018-06-16T12:34:11.093Z,57.33
2018-06-16T12:35:11.122Z,56.59
2018-06-16T12:36:11.147Z,55.71
2018-06-16T12:37:11.176Z,57.56
2018-06-16T12:38:11.201Z,54.83
2018-06-16T12:39:11.272Z,54.93
2018-06-16T12:40:11.254Z,55.80
2018-06-16T12:41:11.281Z,55.51
2018-06-16T12:42:11.309Z,55.61
2018-06-16T12:43:11.337Z,55.19
2018-06-16T12:44:11.365Z,54.42
2018-06-16T12:45:11.401Z,56.87
2018-06-16T12:46:11.417Z,54.54
2018-06-16T12:47:11.442Z,54.54
2018-06-16T12:48:11.463Z,53.47
2018-06-16T12:49:11.494Z,53.50
2018-06-16T12:50:11.522Z,53.89
2018-06-16T12:51:11.552Z,54.25
2018-06-16T12:52:11.577Z,54.13
2018-06-16T12:53:11.603Z,54.68
2018-06-16T12:54:11.628Z,56.04
2018-06-16T12:55:11.655Z,54.90
2018-06-16T12:56:11.682Z,55.51
2018-06-16T12:57:11.764Z,56.32
2018-06-16T12:58:11.755Z,53.59
2018-06-16T12:59:11.777Z,54.01
2018-06-16T13:00:11.788Z,53.52
2018-06-16T13:01:11.818Z,51.65
2018-06-16T13:02:11.838Z,52.94
2018-06-16T13:03:11.869Z,53.33
2018-06-16T13:04:11.897Z,52.16
2018-06-16T13:05:11.923Z,52.43
2018-06-16T13:06:11.960Z,52.53
2018-06-16T13:07:11.992Z,51.82
2018-06-16T13:08:12.004Z,52.40
2018-06-16T13:09:12.032Z,51.94
2018-06-16T13:10:12.060Z,52.23
2018-06-16T13:11:12.090Z,52.55
2018-06-16T13:12:12.120Z,53.40
2018-06-16T13:13:12.137Z,53.04
2018-06-16T13:14:12.169Z,51.94
2018-06-16T13:15:12.194Z,52.53
2018-06-16T13:16:12.237Z,51.65
2018-06-16T13:17:12.257Z,51.55
2018-06-16T13:18:12.328Z,51.17
2018-06-16T13:19:12.303Z,53.69
2018-06-16T13:20:12.327Z,52.31
2018-06-16T13:21:12.355Z,54.15
2018-06-16T13:22:12.382Z,53.28
2018-06-16T13:23:12.406Z,54.05
2018-06-16T13:24:12.437Z,54.25
2018-06-16T13:25:12.464Z,53.77
2018-06-16T13:26:12.491Z,52.43
2018-06-16T13:27:12.518Z,52.72
2018-06-16T13:28:12.546Z,52.82
2018-06-16T13:29:12.581Z,53.50
2018-06-16T13:30:12.598Z,53.62
2018-06-16T13:31:12.685Z,52.36
2018-06-16T13:32:12.649Z,53.81
2018-06-16T13:33:12.681Z,53.72
2018-06-16T13:34:12.710Z,51.48
2018-06-16T13:35:12.734Z,51.19
2018-06-16T13:36:12.759Z,51.75
2018-06-16T13:37:12.786Z,50.48
2018-06-16T13:38:12.813Z,51.07
2018-06-16T13:39:12.848Z,50.97
2018-06-16T13:40:12.870Z,50.48
2018-06-16T13:41:12.899Z,51.84
2018-06-16T13:42:12.922Z,53.50
2018-06-16T13:43:12.962Z,53.67
2018-06-16T13:44:12.983Z,55.10
2018-06-16T13:45:13.003Z,53.81
2018-06-16T13:46:13.028Z,54.49
2018-06-16T13:47:13.059Z,55.07
2018-06-16T13:48:13.086Z,54.61
2018-06-16T13:49:13.113Z,54.22
2018-06-16T13:50:13.137Z,53.16
2018-06-16T13:51:13.165Z,53.45
2018-06-16T13:52:13.192Z,51.53
2018-06-16T13:53:13.222Z,51.45
2018-06-16T13:54:13.247Z,51.26
2018-06-16T13:55:13.273Z,49.90
2018-06-16T13:56:13.300Z,50.12
2018-06-16T13:57:13.324Z,49.83
2018-06-16T13:58:13.367Z,48.46
2018-06-16T13:59:13.392Z,49.83
2018-06-16T14:00:13.423Z,49.80
2018-06-16T14:01:13.431Z,51.65
2018-06-16T14:02:13.461Z,49.87
2018-06-16T14:03:13.486Z,49.97
2018-06-16T14:04:13.528Z,50.85
2018-06-16T14:05:13.541Z,51.53
2018-06-16T14:06:13.567Z,49.99
2018-06-16T14:07:13.595Z,49.80
2018-06-16T14:08:13.618Z,50.48
2018-06-16T14:09:13.647Z,50.56
2018-06-16T14:10:13.671Z,51.31
2018-06-16T14:11:13.704Z,53.45
2018-06-16T14:12:13.728Z,53.54